»·PEaware :: DAL186 KSAN-KPHX

DAL186 :: KSAN-KPHX

FLIGHT INFORMATION

Flight Status: Arrived
Operator:
Delta Air Lines
More flights by this operator :: More flights under this callsign
Pilot: Josh G. (4619)
Aircraft: BOEING 737-800
(B738)
More flights by this aircraft type
Origin: KSAN San Diego Intl-Lindbergh
United States
Destination: KPHX Phoenix Sky Harbor Intl
United States
More flights between these airports :: More routes between these airports
Route: +ZZOOO1 IPL J18 BZA HOGGZ HYDRR1
File this flight plan on PilotEdge
Remarks:
Altitude:
(Current/Filed)
31,000ft
Speed:
(Current/Filed)
320kts
Departed: 13-Sep-17 08:36 PM
Arrived: 13-Sep-17 09:27 PM
Distance/Time
Traveled:
264nm/0:51
Distance/Time
To Go:
Arrived

Flight Plot

Page will automatically refresh every two minutes.


Map Options




Map Legend


Flown Route
Filed Route
Departure Airport
Arrival Airport
Navaid (VOR, NDB)
Fix

Horizontal Profiles

Position Reports

Time Latitude Longitude Heading Altitude Ground
Speed
13-Sep-17 20:16 32.733822 -117.204738 84 22ft 0kts
13-Sep-17 20:17 32.733822 -117.204738 84 22ft 0kts
13-Sep-17 20:18 32.733822 -117.204738 84 23ft 0kts
13-Sep-17 20:19 32.733822 -117.204738 84 23ft 0kts
13-Sep-17 20:20 32.733822 -117.204738 84 23ft 0kts
13-Sep-17 20:21 32.733822 -117.204738 84 23ft 0kts
13-Sep-17 20:22 32.733822 -117.204738 84 23ft 0kts
13-Sep-17 20:23 32.733822 -117.204738 84 23ft 0kts
13-Sep-17 20:24 32.733822 -117.204738 84 23ft 0kts
13-Sep-17 20:25 32.733822 -117.204738 84 23ft 0kts
13-Sep-17 20:26 32.733822 -117.204738 84 23ft 0kts
13-Sep-17 20:27 32.733822 -117.204738 84 23ft 0kts
13-Sep-17 20:28 32.733822 -117.204738 84 23ft 0kts
13-Sep-17 20:29 32.733822 -117.204738 84 23ft 0kts
13-Sep-17 20:30 32.733773 -117.205399 84 23ft 2kts
13-Sep-17 20:31 32.733742 -117.205801 84 22ft 0kts
13-Sep-17 20:32 32.733742 -117.205801 84 22ft 0kts
13-Sep-17 20:33 32.734852 -117.205321 29 22ft 0kts
13-Sep-17 20:34 32.735778 -117.203099 106 22ft 10kts
13-Sep-17 20:35 32.734839 -117.199227 105 22ft 16kts
13-Sep-17 20:36 32.733655 -117.194364 106 22ft 16kts
13-Sep-17 20:37 32.732430 -117.189292 106 22ft 17kts
13-Sep-17 20:38 32.730884 -117.182883 106 23ft 23kts
13-Sep-17 20:39 32.729530 -117.177163 94 23ft 17kts
13-Sep-17 20:40 32.732147 -117.183788 285 23ft 116kts
13-Sep-17 20:41 32.746635 -117.243623 286 2010ft 232kts
13-Sep-17 20:42 32.740152 -117.314681 214 5513ft 244kts
13-Sep-17 20:43 32.676678 -117.294937 138 8397ft 285kts
13-Sep-17 20:44 32.628280 -117.217959 107 11152ft 324kts
13-Sep-17 20:45 32.624476 -117.098175 88 12424ft 396kts
13-Sep-17 20:46 32.635463 -116.965098 87 14806ft 412kts
13-Sep-17 20:47 32.646706 -116.827511 87 17011ft 426kts
13-Sep-17 20:48 32.658250 -116.685426 87 19003ft 440kts
13-Sep-17 20:49 32.670394 -116.538110 87 20761ft 454kts
13-Sep-17 20:50 32.682475 -116.386918 87 22301ft 467kts
13-Sep-17 20:51 32.694678 -116.231095 87 23667ft 479kts
13-Sep-17 20:52 32.706919 -116.072113 87 24891ft 489kts
13-Sep-17 20:53 32.719202 -115.909963 87 26046ft 498kts
13-Sep-17 20:54 32.731760 -115.744370 87 27101ft 506kts
13-Sep-17 20:55 32.743924 -115.576715 87 28230ft 511kts
13-Sep-17 20:56 32.752016 -115.409148 92 29647ft 507kts
13-Sep-17 20:57 32.755480 -115.241256 91 30714ft 510kts
13-Sep-17 20:58 32.758969 -115.073627 91 30717ft 506kts
13-Sep-17 20:59 32.762598 -114.905944 91 30717ft 507kts
13-Sep-17 21:00 32.765743 -114.738710 91 30719ft 507kts
13-Sep-17 21:01 32.768559 -114.571387 92 30720ft 507kts
13-Sep-17 21:02 32.770984 -114.403447 91 30721ft 507kts
13-Sep-17 21:03 32.773121 -114.235911 92 30725ft 508kts
13-Sep-17 21:04 32.775202 -114.069099 89 29406ft 501kts
13-Sep-17 21:05 32.792775 -113.906549 84 27297ft 487kts
13-Sep-17 21:06 32.809973 -113.749467 84 25237ft 473kts
13-Sep-17 21:07 32.868762 -113.616943 48 23922ft 448kts
13-Sep-17 21:08 32.950055 -113.508811 48 22627ft 430kts
13-Sep-17 21:09 33.028891 -113.402316 48 21373ft 424kts
13-Sep-17 21:10 33.106262 -113.298000 48 20144ft 414kts
13-Sep-17 21:11 33.181401 -113.196145 49 18946ft 405kts
13-Sep-17 21:12 33.254332 -113.096354 54 17770ft 391kts
13-Sep-17 21:13 33.277700 -112.978133 92 16849ft 356kts
13-Sep-17 21:14 33.279627 -112.860549 91 15824ft 348kts
13-Sep-17 21:15 33.286537 -112.749411 85 14619ft 328kts
13-Sep-17 21:16 33.297434 -112.642234 85 12819ft 319kts
13-Sep-17 21:17 33.307185 -112.538228 85 11109ft 312kts
13-Sep-17 21:18 33.316598 -112.435093 85 10991ft 314kts
13-Sep-17 21:19 33.326226 -112.331307 85 10857ft 314kts
13-Sep-17 21:20 33.335507 -112.228537 85 10180ft 299kts
13-Sep-17 21:21 33.343755 -112.136211 86 9362ft 268kts
13-Sep-17 21:22 33.347753 -112.049315 94 8429ft 256kts
13-Sep-17 21:23 33.346108 -111.966358 93 7369ft 240kts
13-Sep-17 21:24 33.346514 -111.889586 89 6981ft 217kts
13-Sep-17 21:25 33.348888 -111.819589 86 5621ft 210kts
13-Sep-17 21:26 33.394299 -111.796920 329 4081ft 185kts
13-Sep-17 21:27 33.424771 -111.843088 284 4027ft 170kts
13-Sep-17 21:28 33.428721 -111.896659 267 3303ft 164kts
13-Sep-17 21:29 33.428680 -111.950363 270 2140ft 157kts
13-Sep-17 21:30 33.428815 -112.001776 268 1174ft 147kts
13-Sep-17 21:31 33.429259 -112.021664 325 1143ft 1kts
13-Sep-17 21:32 33.429924 -112.017375 87 1143ft 18kts
13-Sep-17 21:33 33.432502 -112.015169 18 1143ft 7kts
13-Sep-17 21:34 33.433934 -112.014431 88 1143ft 0kts
13-Sep-17 21:35 33.433934 -112.014431 88 1143ft 0kts
13-Sep-17 21:36 33.433934 -112.014431 88 1143ft 0kts
13-Sep-17 21:37 33.433934 -112.014431 88 1143ft 0kts
13-Sep-17 21:38 33.433934 -112.014431 88 1143ft 0kts
13-Sep-17 21:39 33.433934 -112.014431 88 1143ft 0kts
13-Sep-17 21:40 33.433934 -112.014431 88 1143ft 0kts
13-Sep-17 21:41 33.433934 -112.014431 88 1143ft 0kts
13-Sep-17 21:42 33.433934 -112.014431 88 1143ft 0kts
13-Sep-17 21:43 33.433934 -112.014431 88 1143ft 0kts

Navigation Log

Ident Type
1. KSAN Airport
2. JETTI Fix
3. ZZOOO Fix
4. JORRJ Fix
5. GRIDR Fix
6. BLUZE Fix
7. IPL Navaid
8. IPL Navaid
9. HEEDS Fix
10. BZA Navaid
11. HOGGZ Fix
12. JUDTH Fix
13. RKDAM Fix
14. HYDRR Fix
15. GEELA Fix
16. PUNNT Fix
17. TEICH Fix
18. TESLE Fix
19. FALGO Fix
20. CAGOR Fix
21. FOWLE Fix
22. KPHX Airport